createdAt,value
2023-01-25T00:02:59.473Z,1.81
2023-01-25T00:08:08.522Z,1.81
2023-01-25T00:13:17.513Z,1.81
2023-01-25T00:18:26.645Z,1.87
2023-01-25T00:23:38.395Z,1.87
2023-01-25T00:28:47.245Z,1.87
2023-01-25T00:33:56.357Z,1.87
2023-01-25T00:39:05.349Z,1.87
2023-01-25T00:44:14.247Z,1.87
2023-01-25T00:49:23.185Z,1.87
2023-01-25T00:54:32.257Z,1.87
2023-01-25T00:59:41.423Z,1.87
2023-01-25T01:04:50.496Z,1.87
2023-01-25T01:09:59.371Z,1.81
2023-01-25T01:15:08.582Z,1.87
2023-01-25T01:20:17.328Z,1.87
2023-01-25T01:25:26.336Z,1.87
2023-01-25T01:30:35.262Z,1.81
2023-01-25T01:35:44.258Z,1.81
2023-01-25T01:40:53.092Z,1.81
2023-01-25T01:46:02.247Z,1.81
2023-01-25T01:51:11.256Z,1.81
2023-01-25T01:56:20.302Z,1.81
2023-01-25T02:01:29.241Z,1.81
2023-01-25T02:06:38.182Z,1.81
2023-01-25T02:11:47.168Z,1.81
2023-01-25T02:16:56.289Z,1.75
2023-01-25T02:22:05.201Z,1.75
2023-01-25T02:27:14.137Z,1.75
2023-01-25T02:32:23.131Z,1.75
2023-01-25T02:37:32.197Z,1.75
2023-01-25T02:42:41.129Z,1.81
2023-01-25T02:47:50.207Z,1.81
2023-01-25T02:52:59.232Z,1.75
2023-01-25T02:58:08.155Z,1.75
2023-01-25T03:03:17.216Z,1.69
2023-01-25T03:08:26.233Z,1.69
2023-01-25T03:13:35.194Z,1.62
2023-01-25T03:18:44.102Z,1.62
2023-01-25T03:23:53.324Z,1.62
2023-01-25T03:29:02.177Z,1.56
2023-01-25T03:34:11.232Z,1.56
2023-01-25T03:39:20.239Z,1.56
2023-01-25T03:44:29.311Z,1.56
2023-01-25T03:49:38.299Z,1.56
2023-01-25T03:54:47.214Z,1.56
2023-01-25T03:59:56.252Z,1.5
2023-01-25T04:05:05.286Z,1.5
2023-01-25T04:10:14.282Z,1.5
2023-01-25T04:15:23.175Z,1.5
2023-01-25T04:20:32.295Z,1.5
2023-01-25T04:25:41.174Z,1.44
2023-01-25T04:30:50.105Z,1.44
2023-01-25T04:35:59.141Z,1.44
2023-01-25T04:41:08.151Z,1.44
2023-01-25T04:46:17.142Z,1.44
2023-01-25T04:51:26.119Z,1.37
2023-01-25T04:56:35.375Z,1.37
2023-01-25T05:01:44.252Z,1.37
2023-01-25T05:06:53.075Z,1.37
2023-01-25T05:12:02.067Z,1.37
2023-01-25T05:17:11.087Z,1.31
2023-01-25T05:22:20.018Z,1.31
2023-01-25T05:27:28.946Z,1.31
2023-01-25T05:32:37.922Z,1.31
2023-01-25T05:37:47.151Z,1.25
2023-01-25T05:42:56.324Z,1.25
2023-01-25T05:48:05.282Z,1.19
2023-01-25T05:53:14.204Z,1.19
2023-01-25T05:58:23.210Z,1.19
2023-01-25T06:13:50.091Z,1.19
2023-01-25T06:18:58.985Z,1.19
2023-01-25T06:24:08.151Z,1.19
2023-01-25T06:29:17.099Z,1.19
2023-01-25T06:34:26.078Z,1.19
2023-01-25T06:39:35.156Z,1.25
2023-01-25T06:44:43.923Z,1.25
2023-01-25T06:49:52.870Z,1.19
2023-01-25T06:55:02.066Z,1.19
2023-01-25T07:00:11.121Z,1.19
2023-01-25T07:05:20.039Z,1.19
2023-01-25T07:10:29.117Z,1.19
2023-01-25T07:15:38.276Z,1.19
2023-01-25T07:20:47.311Z,1.19
2023-01-25T07:25:56.234Z,1.19
2023-01-25T07:31:05.274Z,1.19
2023-01-25T07:36:14.084Z,1.19
2023-01-25T07:41:23.247Z,1.25
2023-01-25T07:46:32.379Z,1.25
2023-01-25T07:51:41.355Z,1.25
2023-01-25T07:56:50.352Z,1.25
2023-01-25T08:01:59.454Z,1.31
2023-01-25T08:07:08.520Z,1.37
2023-01-25T08:12:17.527Z,1.37
2023-01-25T08:17:26.521Z,1.37
2023-01-25T08:22:35.501Z,1.44
2023-01-25T08:27:44.527Z,1.5
2023-01-25T08:38:02.625Z,1.5
2023-01-25T08:43:14.598Z,1.56
2023-01-25T08:48:23.725Z,1.62
2023-01-25T08:53:32.588Z,1.62
2023-01-25T08:58:41.409Z,1.62
2023-01-25T09:03:50.691Z,1.62
2023-01-25T09:08:59.515Z,1.69
2023-01-25T09:14:08.477Z,1.69
2023-01-25T09:19:17.495Z,1.75
2023-01-25T09:24:26.633Z,1.75
2023-01-25T09:29:36.760Z,1.75
2023-01-25T09:34:44.727Z,1.75
2023-01-25T09:39:54.118Z,1.81
2023-01-25T09:45:03.120Z,1.87
2023-01-25T09:50:12.482Z,1.87
2023-01-25T09:55:21.149Z,1.81
2023-01-25T10:05:39.158Z,1.87
2023-01-25T10:10:48.222Z,1.87
2023-01-25T10:15:57.181Z,1.87
2023-01-25T10:21:06.106Z,1.81
2023-01-25T10:26:14.901Z,1.94
2023-01-25T10:31:24.006Z,1.94
2023-01-25T10:36:32.751Z,2.06
2023-01-25T10:41:41.728Z,1.94
2023-01-25T10:46:50.666Z,1.94
2023-01-25T10:51:59.751Z,1.94
2023-01-25T10:57:11.688Z,2.06
2023-01-25T11:02:21.111Z,2.06
2023-01-25T11:07:29.994Z,2.06
2023-01-25T11:12:39.188Z,2.12
2023-01-25T11:17:50.198Z,2.19
2023-01-25T11:22:57.072Z,2.19
2023-01-25T11:28:06.179Z,2.19
2023-01-25T11:33:15.271Z,2.19
2023-01-25T11:38:27.342Z,2.19
2023-01-25T11:43:56.651Z,2.12
2023-01-25T11:49:05.728Z,2.12
2023-01-25T11:54:14.679Z,2.19
2023-01-25T11:59:23.658Z,2.25
2023-01-25T12:04:32.837Z,2.44
2023-01-25T12:14:50.789Z,2.37
2023-01-25T12:19:59.829Z,2.44
2023-01-25T12:30:17.786Z,2.31
2023-01-25T12:35:26.865Z,2.44
2023-01-25T12:40:35.952Z,2.37
2023-01-25T12:45:44.998Z,2.44
2023-01-25T12:50:54.084Z,2.44
2023-01-25T13:01:12.033Z,2.31
2023-01-25T13:06:23.948Z,2.37
2023-01-25T13:11:33.078Z,2.37
2023-01-25T13:16:42.343Z,2.31
2023-01-25T13:21:51.293Z,2.19
2023-01-25T13:27:00.297Z,2.12
2023-01-25T13:32:09.187Z,2
2023-01-25T13:37:18.028Z,2.06
2023-01-25T13:42:26.837Z,2
2023-01-25T13:47:35.841Z,2
2023-01-25T13:52:44.722Z,2.06
2023-01-25T13:57:53.711Z,2
2023-01-25T14:03:02.752Z,2
2023-01-25T14:08:11.640Z,2.12
2023-01-25T14:13:20.789Z,2.25
2023-01-25T14:18:29.816Z,2.06
2023-01-25T14:23:38.849Z,2
2023-01-25T14:28:55.041Z,1.94
2023-01-25T14:33:56.998Z,1.87
2023-01-25T14:39:05.754Z,1.81
2023-01-25T14:44:14.797Z,1.75
2023-01-25T14:49:23.813Z,1.81
2023-01-25T14:54:32.642Z,1.75
2023-01-25T14:59:41.926Z,1.75
2023-01-25T15:04:50.913Z,1.69
2023-01-25T15:09:59.945Z,1.69
2023-01-25T15:15:08.929Z,1.69
2023-01-25T15:20:17.870Z,1.69
2023-01-25T15:25:26.770Z,1.62
2023-01-25T15:30:35.778Z,1.56
2023-01-25T15:35:44.922Z,1.56
2023-01-25T15:40:53.700Z,1.5
2023-01-25T15:46:02.833Z,1.5
2023-01-25T15:51:11.864Z,1.5
2023-01-25T15:56:20.844Z,1.44
2023-01-25T16:01:29.851Z,1.44
2023-01-25T16:06:38.693Z,1.44
2023-01-25T16:11:47.804Z,1.37
2023-01-25T16:16:56.778Z,1.37
2023-01-25T16:22:05.864Z,1.31
2023-01-25T16:27:14.916Z,1.37
2023-01-25T16:32:23.845Z,1.31
2023-01-25T16:37:32.770Z,1.37
2023-01-25T16:42:41.741Z,1.37
2023-01-25T16:47:50.705Z,1.37
2023-01-25T16:52:59.754Z,1.31
2023-01-25T16:58:08.831Z,1.31
2023-01-25T17:03:17.680Z,1.31
2023-01-25T17:08:26.797Z,1.31
2023-01-25T17:13:35.751Z,1.31
2023-01-25T17:18:44.681Z,1.31
2023-01-25T17:23:53.746Z,1.31
2023-01-25T17:29:02.882Z,1.31
2023-01-25T17:34:11.951Z,1.25
2023-01-25T17:39:21.208Z,1.25
2023-01-25T17:44:30.095Z,1.25
2023-01-25T17:49:38.899Z,1.25
2023-01-25T17:54:47.939Z,1.19
2023-01-25T17:59:56.980Z,1.19
2023-01-25T18:05:05.940Z,1.19
2023-01-25T18:15:23.840Z,1.19
2023-01-25T18:20:32.801Z,1.19
2023-01-25T18:25:41.808Z,1.19
2023-01-25T18:30:50.900Z,1.19
2023-01-25T18:36:01.938Z,1.19
2023-01-25T18:41:09.013Z,1.12
2023-01-25T18:51:27.088Z,1.12
2023-01-25T18:56:35.913Z,1.19
2023-01-25T19:01:45.164Z,1.12
2023-01-25T19:06:54.194Z,1.12
2023-01-25T19:12:03.335Z,1.06
2023-01-25T19:17:12.188Z,1.06
2023-01-25T19:22:21.290Z,1.06
2023-01-25T19:27:30.383Z,1.06
2023-01-25T19:32:39.261Z,1
2023-01-25T19:37:48.425Z,1
2023-01-25T19:42:57.338Z,1
2023-01-25T19:48:06.350Z,1
2023-01-25T19:53:15.424Z,1
2023-01-25T19:58:24.315Z,1
2023-01-25T20:03:33.500Z,0.94
2023-01-25T20:08:42.400Z,0.94
2023-01-25T20:13:51.424Z,0.94
2023-01-25T20:19:00.380Z,0.94
2023-01-25T20:24:09.365Z,0.94
2023-01-25T20:29:18.375Z,0.94
2023-01-25T20:34:27.429Z,0.94
2023-01-25T20:39:36.666Z,0.94
2023-01-25T20:44:45.656Z,0.94
2023-01-25T20:49:54.643Z,0.88
2023-01-25T20:55:03.784Z,0.81
2023-01-25T21:00:12.814Z,0.81
2023-01-25T21:05:21.953Z,0.81
2023-01-25T21:10:30.959Z,0.81
2023-01-25T21:15:39.843Z,0.81
2023-01-25T21:20:48.837Z,0.81
2023-01-25T21:26:00.593Z,0.81
2023-01-25T21:31:09.743Z,0.81
2023-01-25T21:36:18.494Z,0.88
2023-01-25T21:41:27.527Z,0.81
2023-01-25T21:46:36.533Z,0.81
2023-01-25T21:51:45.387Z,0.75
2023-01-25T21:56:54.413Z,0.75
2023-01-25T22:02:03.791Z,0.75
2023-01-25T22:07:12.610Z,0.75
2023-01-25T22:12:21.525Z,0.75
2023-01-25T22:17:30.450Z,0.69
2023-01-25T22:22:39.610Z,0.62
2023-01-25T22:27:48.706Z,0.62
2023-01-25T22:32:57.888Z,0.62
2023-01-25T22:38:06.944Z,0.62
2023-01-25T22:43:16.173Z,0.62
2023-01-25T22:48:25.104Z,0.62
2023-01-25T22:53:34.188Z,0.56
2023-01-25T22:58:43.346Z,0.56
2023-01-25T23:03:52.295Z,0.56
2023-01-25T23:09:01.419Z,0.56
2023-01-25T23:14:10.429Z,0.5
2023-01-25T23:19:19.428Z,0.5
2023-01-25T23:24:28.335Z,0.5
2023-01-25T23:29:37.361Z,0.5
2023-01-25T23:34:46.308Z,0.44
2023-01-25T23:39:55.226Z,0.44
2023-01-25T23:45:04.242Z,0.44
2023-01-25T23:50:13.563Z,0.44
2023-01-25T23:55:22.211Z,0.44
